Station Historical Data
Daily Summary for June 30, 2012 Units:  English    Metric   Both
« Previous Day
Next Day »
Daily Weekly Monthly Yearly Custom
  High: Low: Average:
Temperature: 102.2 °F 76.9 °F 89 °F
Dew Point: 72.6 °F 62.7 °F 67.5 °F
Humidity: 74% 28% 52%
Wind Speed: 15.0mph 0.0mph 2.6mph
Wind Gust: 15.0mph - -
Wind- - WSW
Pressure: 29.86 in 29.78 in -
Precipitation: 0.00 in    
Historical Graphs
 
 
Tabular Data for June 30, 2012
Time Temperature Dew Point Pressure Wind Wind Speed Wind Gust Humidity Rainfall Rate (Hourly) Conditions
00:00 83.8 °F 65.4 °F 29.81 in SW 1.0 mph 1.0 mph 54% 0.00 in
00:05 83.9 °F 65.5 °F 29.81 in SW 1.0 mph 1.0 mph 54% 0.00 in
00:10 83.8 °F 65.4 °F 29.81 in SW 1.0 mph 2.0 mph 54% 0.00 in
00:15 83.6 °F 65.2 °F 29.82 in SW 1.0 mph 2.0 mph 54% 0.00 in
00:20 83.6 °F 65.2 °F 29.81 in SW 1.0 mph 2.0 mph 54% 0.00 in
00:25 83.6 °F 65.2 °F 29.81 in SW 1.0 mph 2.0 mph 54% 0.00 in
00:30 83.4 °F 65.6 °F 29.82 in SW 1.0 mph 1.0 mph 55% 0.00 in
00:35 83.2 °F 65.4 °F 29.82 in SW 1.0 mph 1.0 mph 55% 0.00 in
00:40 83.2 °F 65.4 °F 29.82 in SW 1.0 mph 2.0 mph 55% 0.00 in
00:45 83.3 °F 66.0 °F 29.82 in SW 1.0 mph 1.0 mph 56% 0.00 in
00:50 83.2 °F 65.9 °F 29.82 in Calm   2.0 mph 56% 0.00 in
00:55 83.0 °F 65.7 °F 29.82 in SW 1.0 mph 1.0 mph 56% 0.00 in
01:00 83.0 °F 66.2 °F 29.82 in Calm   1.0 mph 57% 0.00 in
01:05 82.8 °F 66.0 °F 29.82 in Calm   1.0 mph 57% 0.00 in
01:11 82.5 °F 66.2 °F 29.82 in Calm   2.0 mph 58% 0.00 in
01:16 82.3 °F 66.6 °F 29.82 in Calm     59% 0.00 in
01:21 82.2 °F 66.5 °F 29.82 in SW 1.0 mph 1.0 mph 59% 0.00 in
01:26 82.2 °F 66.9 °F 29.82 in Calm   1.0 mph 60% 0.00 in
01:31 82.0 °F 66.8 °F 29.82 in Calm   1.0 mph 60% 0.00 in
01:36 82.2 °F 66.5 °F 29.82 in WSW 1.0 mph 1.0 mph 59% 0.00 in
01:41 82.4 °F 66.7 °F 29.82 in West 1.0 mph 2.0 mph 59% 0.00 in
01:46 82.4 °F 66.7 °F 29.82 in WSW 1.0 mph 1.0 mph 59% 0.00 in
01:51 82.5 °F 66.7 °F 29.82 in SW 1.0 mph 1.0 mph 59% 0.00 in
01:56 82.5 °F 66.7 °F 29.82 in Calm   1.0 mph 59% 0.00 in
02:01 82.5 °F 66.7 °F 29.81 in Calm     59% 0.00 in
02:06 82.4 °F 66.2 °F 29.81 in WSW 1.0 mph 2.0 mph 58% 0.00 in
02:11 82.5 °F 66.2 °F 29.81 in WSW 1.0 mph 2.0 mph 58% 0.00 in
02:16 82.4 °F 66.7 °F 29.81 in Calm   2.0 mph 59% 0.00 in
02:21 82.0 °F 66.3 °F 29.81 in Calm   1.0 mph 59% 0.00 in
02:26 81.8 °F 66.6 °F 29.81 in Calm   1.0 mph 60% 0.00 in
02:31 81.5 °F 66.3 °F 29.81 in Calm     60% 0.00 in
02:36 81.2 °F 66.5 °F 29.81 in Calm     61% 0.00 in
02:41 81.1 °F 66.9 °F 29.80 in Calm     62% 0.00 in
02:46 80.9 °F 67.1 °F 29.80 in Calm     63% 0.00 in
02:51 80.6 °F 66.8 °F 29.80 in Calm     63% 0.00 in
02:56 80.4 °F 66.7 °F 29.80 in Calm   1.0 mph 63% 0.00 in
03:01 80.2 °F 66.5 °F 29.80 in Calm   1.0 mph 63% 0.00 in
03:06 80.0 °F 67.2 °F 29.80 in SW 1.0 mph 1.0 mph 65% 0.00 in
03:11 80.0 °F 67.2 °F 29.80 in SW 1.0 mph 1.0 mph 65% 0.00 in
03:16 79.9 °F 67.1 °F 29.80 in Calm     65% 0.00 in
03:21 79.7 °F 66.9 °F 29.80 in Calm   1.0 mph 65% 0.00 in
03:26 79.6 °F 66.8 °F 29.80 in Calm   1.0 mph 65% 0.00 in
03:31 79.5 °F 67.2 °F 29.80 in Calm   1.0 mph 66% 0.00 in
03:36 79.4 °F 67.1 °F 29.80 in Calm   1.0 mph 66% 0.00 in
03:41 79.2 °F 67.3 °F 29.79 in Calm     67% 0.00 in
03:46 79.3 °F 67.4 °F 29.80 in West 1.0 mph 1.0 mph 67% 0.00 in
03:51 79.3 °F 67.4 °F 29.80 in NNW 1.0 mph 2.0 mph 67% 0.00 in
03:56 79.0 °F 67.6 °F 29.80 in Calm   1.0 mph 68% 0.00 in
04:01 78.8 °F 67.4 °F 29.80 in NW 1.0 mph 1.0 mph 68% 0.00 in
04:06 78.6 °F 67.2 °F 29.80 in Calm   1.0 mph 68% 0.00 in
04:11 78.7 °F 67.3 °F 29.80 in NW 1.0 mph 1.0 mph 68% 0.00 in
04:16 78.7 °F 67.3 °F 29.80 in Calm   1.0 mph 68% 0.00 in
04:22 78.6 °F 67.6 °F 29.80 in West 1.0 mph 1.0 mph 69% 0.00 in
04:27 78.6 °F 67.6 °F 29.80 in WSW 1.0 mph 1.0 mph 69% 0.00 in
04:32 78.6 °F 68.0 °F 29.80 in Calm   1.0 mph 70% 0.00 in
04:37 78.5 °F 67.9 °F 29.80 in Calm   1.0 mph 70% 0.00 in
04:42 78.4 °F 67.8 °F 29.80 in Calm   1.0 mph 70% 0.00 in
04:47 78.3 °F 68.1 °F 29.80 in WSW 1.0 mph 1.0 mph 71% 0.00 in
04:52 78.3 °F 68.1 °F 29.80 in Calm   1.0 mph 71% 0.00 in
04:57 78.2 °F 68.0 °F 29.80 in Calm   1.0 mph 71% 0.00 in
05:02 78.1 °F 67.9 °F 29.80 in Calm   1.0 mph 71% 0.00 in
05:07 78.2 °F 68.0 °F 29.80 in West 1.0 mph 1.0 mph 71% 0.00 in
05:12 78.0 °F 67.8 °F 29.80 in Calm   1.0 mph 71% 0.00 in
05:17 77.6 °F 67.9 °F 29.80 in Calm   1.0 mph 72% 0.00 in
05:22 77.4 °F 68.1 °F 29.80 in Calm     73% 0.00 in
05:27 77.5 °F 68.2 °F 29.80 in West 1.0 mph 1.0 mph 73% 0.00 in
05:32 77.6 °F 68.3 °F 29.80 in WNW 1.0 mph 1.0 mph 73% 0.00 in
05:37 77.6 °F 67.9 °F 29.80 in NW 1.0 mph 2.0 mph 72% 0.00 in
05:42 77.7 °F 68.0 °F 29.80 in NW 1.0 mph 1.0 mph 72% 0.00 in
05:47 77.8 °F 68.1 °F 29.81 in NW 1.0 mph 1.0 mph 72% 0.00 in
05:52 77.8 °F 68.1 °F 29.81 in NW 1.0 mph 2.0 mph 72% 0.00 in
05:57 77.6 °F 67.9 °F 29.81 in NW 2.0 mph 2.0 mph 72% 0.00 in
06:02 77.4 °F 68.1 °F 29.81 in NW 1.0 mph 2.0 mph 73% 0.00 in
06:07 77.0 °F 67.7 °F 29.81 in Calm   2.0 mph 73% 0.00 in
06:12 76.9 °F 68.0 °F 29.81 in WNW 1.0 mph 1.0 mph 74% 0.00 in
06:17 76.9 °F 68.0 °F 29.82 in WNW 1.0 mph 1.0 mph 74% 0.00 in
06:22 77.0 °F 68.1 °F 29.82 in Calm   2.0 mph 74% 0.00 in
06:27 77.0 °F 68.1 °F 29.82 in WNW 1.0 mph 1.0 mph 74% 0.00 in
06:32 77.1 °F 67.8 °F 29.82 in WNW 1.0 mph 1.0 mph 73% 0.00 in
06:37 77.3 °F 68.0 °F 29.82 in West 1.0 mph 1.0 mph 73% 0.00 in
06:42 77.4 °F 67.7 °F 29.82 in West 1.0 mph 1.0 mph 72% 0.00 in
06:47 77.4 °F 67.7 °F 29.82 in Calm   1.0 mph 72% 0.00 in
06:52 77.2 °F 67.9 °F 29.82 in West 1.0 mph 1.0 mph 73% 0.00 in
06:57 77.2 °F 67.9 °F 29.82 in WNW 1.0 mph 1.0 mph 73% 0.00 in
07:02 77.2 °F 67.9 °F 29.83 in Calm   1.0 mph 73% 0.00 in
07:07 77.1 °F 67.8 °F 29.83 in Calm   1.0 mph 73% 0.00 in
07:13 77.1 °F 67.8 °F 29.83 in NW 1.0 mph 1.0 mph 73% 0.00 in
07:18 77.1 °F 67.8 °F 29.83 in Calm   1.0 mph 73% 0.00 in
07:23 77.2 °F 67.9 °F 29.84 in Calm     73% 0.00 in
07:28 77.5 °F 67.8 °F 29.84 in Calm     72% 0.00 in
07:33 77.8 °F 68.1 °F 29.84 in Calm   1.0 mph 72% 0.00 in
07:38 77.9 °F 68.2 °F 29.84 in Calm     72% 0.00 in
07:43 78.2 °F 68.4 °F 29.85 in NW 2.0 mph 2.0 mph 72% 0.00 in
07:48 78.2 °F 68.4 °F 29.85 in NNW 2.0 mph 2.0 mph 72% 0.00 in
07:53 78.2 °F 68.8 °F 29.85 in NNW 1.0 mph 2.0 mph 73% 0.00 in
07:58 78.4 °F 69.0 °F 29.86 in NNW 1.0 mph 2.0 mph 73% 0.00 in
08:03 78.8 °F 69.0 °F 29.86 in NNW 3.0 mph 3.0 mph 72% 0.00 in
08:08 79.1 °F 69.7 °F 29.86 in NW 1.0 mph 3.0 mph 73% 0.00 in
08:13 79.3 °F 69.5 °F 29.86 in NNW 2.0 mph 3.0 mph 72% 0.00 in
08:18 79.7 °F 69.9 °F 29.86 in NW 2.0 mph 3.0 mph 72% 0.00 in
08:23 80.0 °F 69.8 °F 29.86 in WNW 3.0 mph 3.0 mph 71% 0.00 in
08:28 80.3 °F 70.1 °F 29.86 in WNW 3.0 mph 4.0 mph 71% 0.00 in
08:34 80.6 °F 69.9 °F 29.86 in WNW 2.0 mph 4.0 mph 70% 0.00 in
08:39 80.9 °F 69.8 °F 29.86 in NW 3.0 mph 5.0 mph 69% 0.00 in
08:44 81.3 °F 70.2 °F 29.86 in WNW 4.0 mph 5.0 mph 69% 0.00 in
08:49 81.6 °F 70.0 °F 29.86 in WNW 5.0 mph 6.0 mph 68% 0.00 in
08:54 81.8 °F 70.2 °F 29.86 in WNW 6.0 mph 7.0 mph 68% 0.00 in
08:59 82.2 °F 70.2 °F 29.86 in WNW 2.0 mph 6.0 mph 67% 0.00 in
09:04 82.7 °F 70.2 °F 29.86 in NW 6.0 mph 6.0 mph 66% 0.00 in
09:09 83.0 °F 70.5 °F 29.86 in WNW 4.0 mph 7.0 mph 66% 0.00 in
09:14 83.3 °F 70.3 °F 29.86 in WNW 5.0 mph 7.0 mph 65% 0.00 in
09:19 83.5 °F 70.5 °F 29.86 in WNW 5.0 mph 7.0 mph 65% 0.00 in
09:24 83.8 °F 69.9 °F 29.86 in WNW 5.0 mph 9.0 mph 63% 0.00 in
09:29 84.1 °F 71.1 °F 29.86 in WNW 3.0 mph 7.0 mph 65% 0.00 in
09:34 84.5 °F 70.5 °F 29.86 in WNW 6.0 mph 9.0 mph 63% 0.00 in
09:39 84.8 °F 70.8 °F 29.86 in WNW 6.0 mph 7.0 mph 63% 0.00 in
09:44 85.1 °F 70.6 °F 29.86 in West 5.0 mph 6.0 mph 62% 0.00 in
09:49 85.4 °F 70.9 °F 29.86 in NW 5.0 mph 8.0 mph 62% 0.00 in
09:54 85.7 °F 71.2 °F 29.86 in West 6.0 mph 6.0 mph 62% 0.00 in
09:59 86.2 °F 71.2 °F 29.86 in WNW 2.0 mph 8.0 mph 61% 0.00 in
10:04 86.6 °F 71.6 °F 29.86 in NW 4.0 mph 7.0 mph 61% 0.00 in
10:09 86.9 °F 71.8 °F 29.86 in NW 6.0 mph 6.0 mph 61% 0.00 in
10:14 87.3 °F 71.7 °F 29.86 in NW 4.0 mph 8.0 mph 60% 0.00 in
10:19 87.7 °F 71.6 °F 29.85 in WNW 5.0 mph 7.0 mph 59% 0.00 in
10:24 88.2 °F 72.6 °F 29.85 in WNW 5.0 mph 6.0 mph 60% 0.00 in
10:29 88.2 °F 72.1 °F 29.85 in WNW 5.0 mph 6.0 mph 59% 0.00 in
10:34 88.5 °F 72.3 °F 29.85 in NW 3.0 mph 5.0 mph 59% 0.00 in
10:39 88.8 °F 72.6 °F 29.85 in WNW 4.0 mph 6.0 mph 59% 0.00 in
10:44 89.2 °F 72.5 °F 29.85 in WNW 2.0 mph 4.0 mph 58% 0.00 in
10:49 89.9 °F 71.6 °F 29.85 in WNW 4.0 mph 5.0 mph 55% 0.00 in
10:54 90.3 °F 71.9 °F 29.85 in West 2.0 mph 5.0 mph 55% 0.00 in
11:00 90.6 °F 72.2 °F 29.85 in WNW 3.0 mph 6.0 mph 55% 0.00 in
11:05 91.0 °F 72.1 °F 29.85 in WNW 2.0 mph 6.0 mph 54% 0.00 in
11:10 91.6 °F 72.1 °F 29.85 in WNW 2.0 mph 8.0 mph 53% 0.00 in
11:15 92.0 °F 71.9 °F 29.85 in West 3.0 mph 5.0 mph 52% 0.00 in
11:20 92.7 °F 72.5 °F 29.85 in NW 4.0 mph 4.0 mph 52% 0.00 in
11:25 93.0 °F 71.6 °F 29.85 in North 4.0 mph 5.0 mph 50% 0.00 in
11:30 92.9 °F 70.9 °F 29.85 in Calm   5.0 mph 49% 0.00 in
11:35 93.3 °F 71.9 °F 29.85 in NNW 3.0 mph 7.0 mph 50% 0.00 in
11:40 93.9 °F 71.2 °F 29.85 in NNW 2.0 mph 4.0 mph 48% 0.00 in
11:45 94.0 °F 71.3 °F 29.85 in West 1.0 mph 4.0 mph 48% 0.00 in
11:50 94.0 °F 71.3 °F 29.84 in West 4.0 mph 5.0 mph 48% 0.00 in
11:55 94.4 °F 70.4 °F 29.84 in Calm   3.0 mph 46% 0.00 in
12:00 94.9 °F 70.9 °F 29.84 in WNW 3.0 mph 5.0 mph 46% 0.00 in
12:05 95.1 °F 69.8 °F 29.84 in NNE 3.0 mph 6.0 mph 44% 0.00 in
12:10 95.2 °F 69.9 °F 29.84 in NE 4.0 mph 4.0 mph 44% 0.00 in
12:15 95.1 °F 70.4 °F 29.84 in NE 3.0 mph 5.0 mph 45% 0.00 in
12:20 95.0 °F 70.3 °F 29.84 in ENE 4.0 mph 5.0 mph 45% 0.00 in
12:25 95.2 °F 71.8 °F 29.84 in NE 2.0 mph 4.0 mph 47% 0.00 in
12:30 95.7 °F 69.6 °F 29.84 in NW 2.0 mph 5.0 mph 43% 0.00 in
12:35 96.0 °F 68.5 °F 29.84 in NNW 3.0 mph 4.0 mph 41% 0.00 in
12:40 96.5 °F 69.0 °F 29.84 in NNW 1.0 mph 3.0 mph 41% 0.00 in
12:45 97.3 °F 69.0 °F 29.83 in WNW 3.0 mph 8.0 mph 40% 0.00 in
12:50 97.7 °F 67.1 °F 29.83 in WSW 4.0 mph 6.0 mph 37% 0.00 in
12:55 97.3 °F 66.7 °F 29.84 in WNW 3.0 mph 8.0 mph 37% 0.00 in
13:00 97.2 °F 68.1 °F 29.84 in West 4.0 mph 6.0 mph 39% 0.00 in
13:05 97.0 °F 66.4 °F 29.83 in NW 1.0 mph 7.0 mph 37% 0.00 in
13:10 97.5 °F 67.6 °F 29.83 in SW 6.0 mph 11.0 mph 38% 0.00 in
13:15 97.9 °F 68.0 °F 29.83 in WSW 5.0 mph 7.0 mph 38% 0.00 in
13:20 97.7 °F 67.1 °F 29.83 in SSW 2.0 mph 7.0 mph 37% 0.00 in
13:25 98.4 °F 69.2 °F 29.83 in West 15.0 mph 15.0 mph 39% 0.00 in
13:30 98.2 °F 67.5 °F 29.83 in West 1.0 mph 10.0 mph 37% 0.00 in
13:35 99.2 °F 67.6 °F 29.83 in WNW 7.0 mph 7.0 mph 36% 0.00 in
13:40 98.8 °F 68.8 °F 29.83 in NW 3.0 mph 6.0 mph 38% 0.00 in
13:45 98.6 °F 65.4 °F 29.83 in West 6.0 mph 6.0 mph 34% 0.00 in
13:50 98.9 °F 65.7 °F 29.83 in SW 6.0 mph 10.0 mph 34% 0.00 in
13:55 98.6 °F 64.5 °F 29.82 in WNW 1.0 mph 7.0 mph 33% 0.00 in
14:00 99.2 °F 65.9 °F 29.82 in WSW 7.0 mph 8.0 mph 34% 0.00 in
14:05 98.8 °F 64.7 °F 29.82 in WNW 4.0 mph 8.0 mph 33% 0.00 in
14:10 98.5 °F 66.1 °F 29.82 in WNW 7.0 mph 11.0 mph 35% 0.00 in
14:16 98.7 °F 67.9 °F 29.82 in SE 4.0 mph 6.0 mph 37% 0.00 in
14:21 99.1 °F 67.5 °F 29.82 in SSE 7.0 mph 10.0 mph 36% 0.00 in
14:26 99.5 °F 67.8 °F 29.82 in SSE 7.0 mph 7.0 mph 36% 0.00 in
14:31 99.3 °F 66.0 °F 29.82 in South 8.0 mph 8.0 mph 34% 0.00 in
14:36 99.3 °F 66.8 °F 29.82 in South 2.0 mph 6.0 mph 35% 0.00 in
14:41 99.7 °F 67.2 °F 29.82 in South 6.0 mph 10.0 mph 35% 0.00 in
14:46 99.7 °F 67.2 °F 29.82 in SW 2.0 mph 4.0 mph 35% 0.00 in
14:51 100.5 °F 67.9 °F 29.81 in West 5.0 mph 6.0 mph 35% 0.00 in
14:56 100.4 °F 67.0 °F 29.82 in SW 3.0 mph 8.0 mph 34% 0.00 in
15:01 100.3 °F 67.7 °F 29.81 in WNW 2.0 mph 8.0 mph 35% 0.00 in
15:06 100.5 °F 68.7 °F 29.81 in WNW 2.0 mph 6.0 mph 36% 0.00 in
15:11 100.1 °F 65.8 °F 29.80 in WNW 5.0 mph 7.0 mph 33% 0.00 in
15:16 100.1 °F 65.8 °F 29.80 in SW 3.0 mph 9.0 mph 33% 0.00 in
15:21 100.6 °F 66.3 °F 29.80 in SW 6.0 mph 11.0 mph 33% 0.00 in
15:26 100.1 °F 65.8 °F 29.80 in WNW 3.0 mph 11.0 mph 33% 0.00 in
15:31 100.0 °F 66.6 °F 29.80 in WNW 9.0 mph 9.0 mph 34% 0.00 in
15:36 99.8 °F 66.4 °F 29.80 in NNW 4.0 mph 9.0 mph 34% 0.00 in
15:41 100.2 °F 67.6 °F 29.80 in SSW 3.0 mph 8.0 mph 35% 0.00 in
15:46 100.7 °F 65.5 °F 29.80 in SSW 8.0 mph 10.0 mph 32% 0.00 in
15:51 100.8 °F 66.4 °F 29.80 in South 3.0 mph 8.0 mph 33% 0.00 in
15:56 100.8 °F 64.7 °F 29.79 in SSW 10.0 mph 12.0 mph 31% 0.00 in
16:01 101.1 °F 64.0 °F 29.79 in West 7.0 mph 9.0 mph 30% 0.00 in
16:06 101.4 °F 65.2 °F 29.79 in South 9.0 mph 12.0 mph 31% 0.00 in
16:11 101.8 °F 63.6 °F 29.79 in SW 8.0 mph 11.0 mph 29% 0.00 in
16:16 101.6 °F 63.4 °F 29.79 in South 5.0 mph 11.0 mph 29% 0.00 in
16:21 101.8 °F 63.6 °F 29.79 in SW 4.0 mph 11.0 mph 29% 0.00 in
16:26 101.4 °F 63.3 °F 29.79 in SW 7.0 mph 9.0 mph 29% 0.00 in
16:31 101.3 °F 64.1 °F 29.79 in SSE 9.0 mph 9.0 mph 30% 0.00 in
16:36 102.0 °F 64.7 °F 29.79 in SW 9.0 mph 10.0 mph 30% 0.00 in
16:42 101.7 °F 63.5 °F 29.79 in SW 5.0 mph 6.0 mph 29% 0.00 in
16:47 101.8 °F 63.6 °F 29.79 in SW 6.0 mph 6.0 mph 29% 0.00 in
16:52 101.8 °F 63.6 °F 29.79 in WSW 4.0 mph 7.0 mph 29% 0.00 in
16:57 101.8 °F 63.6 °F 29.79 in SSW 4.0 mph 10.0 mph 29% 0.00 in
17:02 101.9 °F 62.7 °F 29.79 in WNW 1.0 mph 6.0 mph 28% 0.00 in
17:07 101.7 °F 65.4 °F 29.79 in South 5.0 mph 8.0 mph 31% 0.00 in
17:12 101.9 °F 65.6 °F 29.78 in ESE 4.0 mph 4.0 mph 31% 0.00 in
17:17 102.2 °F 64.9 °F 29.78 in South 8.0 mph 11.0 mph 30% 0.00 in
17:22 101.9 °F 64.7 °F 29.78 in WSW 7.0 mph 11.0 mph 30% 0.00 in
17:27 101.6 °F 64.4 °F 29.78 in SW 7.0 mph 11.0 mph 30% 0.00 in
17:32 101.7 °F 64.5 °F 29.78 in WSW 4.0 mph 7.0 mph 30% 0.00 in
17:37 101.6 °F 64.4 °F 29.78 in SW 3.0 mph 6.0 mph 30% 0.00 in
17:42 101.8 °F 66.4 °F 29.78 in SW 8.0 mph 11.0 mph 32% 0.00 in
17:47 101.3 °F 66.0 °F 29.78 in WSW 6.0 mph 11.0 mph 32% 0.00 in
17:52 101.3 °F 65.1 °F 29.79 in SW 4.0 mph 7.0 mph 31% 0.00 in
17:57 101.1 °F 64.9 °F 29.78 in SE 3.0 mph 8.0 mph 31% 0.00 in
18:02 101.3 °F 65.1 °F 29.78 in SW 4.0 mph 9.0 mph 31% 0.00 in
18:07 101.2 °F 65.9 °F 29.78 in SW 9.0 mph 9.0 mph 32% 0.00 in
18:13 101.1 °F 65.8 °F 29.78 in SW 3.0 mph 8.0 mph 32% 0.00 in
18:18 101.1 °F 64.9 °F 29.78 in SW 4.0 mph 8.0 mph 31% 0.00 in
18:23 101.2 °F 65.9 °F 29.78 in SW 5.0 mph 6.0 mph 32% 0.00 in
18:28 100.7 °F 65.5 °F 29.78 in SSW 5.0 mph 9.0 mph 32% 0.00 in
18:33 100.8 °F 65.6 °F 29.78 in South 4.0 mph 7.0 mph 32% 0.00 in
18:38 100.8 °F 65.6 °F 29.78 in South 8.0 mph 11.0 mph 32% 0.00 in
18:43 100.5 °F 65.3 °F 29.78 in SW 4.0 mph 8.0 mph 32% 0.00 in
18:48 100.3 °F 65.1 °F 29.78 in SSW 6.0 mph 9.0 mph 32% 0.00 in
18:53 100.1 °F 65.8 °F 29.78 in SSE 7.0 mph 9.0 mph 33% 0.00 in
18:58 99.8 °F 65.6 °F 29.78 in SW 7.0 mph 10.0 mph 33% 0.00 in
19:03 99.5 °F 66.2 °F 29.78 in SW 5.0 mph 10.0 mph 34% 0.00 in
19:08 99.4 °F 66.9 °F 29.78 in SSW 4.0 mph 6.0 mph 35% 0.00 in
19:13 99.3 °F 66.8 °F 29.79 in SSW 5.0 mph 8.0 mph 35% 0.00 in
19:18 99.1 °F 65.8 °F 29.79 in SW 5.0 mph 7.0 mph 34% 0.00 in
19:23 98.9 °F 66.5 °F 29.79 in SW 6.0 mph 7.0 mph 35% 0.00 in
19:28 98.6 °F 67.1 °F 29.79 in SSW 4.0 mph 9.0 mph 36% 0.00 in
19:33 98.4 °F 66.9 °F 29.79 in WSW 6.0 mph 6.0 mph 36% 0.00 in
19:38 98.0 °F 66.5 °F 29.79 in SW 4.0 mph 7.0 mph 36% 0.00 in
19:43 97.8 °F 66.3 °F 29.79 in WSW 7.0 mph 7.0 mph 36% 0.00 in
19:48 97.6 °F 66.2 °F 29.79 in WSW 4.0 mph 6.0 mph 36% 0.00 in
19:53 97.5 °F 67.6 °F 29.79 in SW 3.0 mph 4.0 mph 38% 0.00 in
19:58 97.3 °F 66.7 °F 29.79 in SW 2.0 mph 4.0 mph 37% 0.00 in
20:03 97.0 °F 67.9 °F 29.79 in SW 3.0 mph 4.0 mph 39% 0.00 in
20:08 96.5 °F 67.5 °F 29.79 in SW 6.0 mph 6.0 mph 39% 0.00 in
20:13 96.1 °F 67.2 °F 29.80 in SW 3.0 mph 4.0 mph 39% 0.00 in
20:18 95.7 °F 67.5 °F 29.80 in SW 3.0 mph 4.0 mph 40% 0.00 in
20:23 95.4 °F 67.3 °F 29.80 in SW 2.0 mph 5.0 mph 40% 0.00 in
20:28 94.9 °F 68.2 °F 29.80 in SW 3.0 mph 4.0 mph 42% 0.00 in
20:33 94.6 °F 67.3 °F 29.80 in SW 2.0 mph 4.0 mph 41% 0.00 in
20:38 94.3 °F 67.0 °F 29.80 in WSW 1.0 mph 4.0 mph 41% 0.00 in
20:45 94.0 °F 67.4 °F 29.81 in WSW 3.0 mph 5.0 mph 42% 0.00 in
20:50 93.7 °F 67.2 °F 29.81 in West 4.0 mph 4.0 mph 42% 0.00 in
20:55 93.4 °F 66.9 °F 29.81 in West 5.0 mph 6.0 mph 42% 0.00 in
21:00 93.1 °F 66.6 °F 29.81 in West 3.0 mph 4.0 mph 42% 0.00 in
21:05 92.7 °F 66.9 °F 29.81 in West 3.0 mph 3.0 mph 43% 0.00 in
21:10 92.3 °F 67.2 °F 29.81 in SW 2.0 mph 3.0 mph 44% 0.00 in
21:15 91.6 °F 67.3 °F 29.81 in SW 1.0 mph 2.0 mph 45% 0.00 in
21:20 91.0 °F 67.4 °F 29.82 in SW 1.0 mph 2.0 mph 46% 0.00 in
21:25 90.5 °F 66.9 °F 29.82 in SW 1.0 mph 2.0 mph 46% 0.00 in
21:30 90.1 °F 67.2 °F 29.82 in WSW 1.0 mph 1.0 mph 47% 0.00 in
21:35 90.0 °F 66.5 °F 29.82 in WSW 1.0 mph 2.0 mph 46% 0.00 in
21:40 90.0 °F 67.1 °F 29.82 in WSW 1.0 mph 1.0 mph 47% 0.00 in
21:45 89.6 °F 67.3 °F 29.82 in Calm   1.0 mph 48% 0.00 in
21:50 88.9 °F 66.7 °F 29.82 in Calm     48% 0.00 in
21:55 88.4 °F 66.8 °F 29.82 in Calm     49% 0.00 in
22:00 88.4 °F 66.8 °F 29.82 in Calm     49% 0.00 in
22:05 88.2 °F 67.2 °F 29.83 in Calm     50% 0.00 in
22:10 87.7 °F 66.8 °F 29.83 in Calm     50% 0.00 in
22:15 87.4 °F 67.1 °F 29.83 in Calm     51% 0.00 in
22:20 87.2 °F 66.9 °F 29.83 in Calm     51% 0.00 in
22:25 87.0 °F 66.7 °F 29.83 in Calm     51% 0.00 in
22:30 86.7 °F 67.0 °F 29.83 in Calm     52% 0.00 in
22:35 86.3 °F 66.6 °F 29.84 in Calm     52% 0.00 in
22:40 85.9 °F 66.8 °F 29.84 in Calm     53% 0.00 in
22:45 85.6 °F 67.1 °F 29.84 in Calm     54% 0.00 in
22:50 85.2 °F 66.7 °F 29.84 in Calm     54% 0.00 in
22:56 85.2 °F 66.7 °F 29.84 in Calm     54% 0.00 in
23:01 85.0 °F 66.5 °F 29.84 in Calm     54% 0.00 in
23:06 85.0 °F 67.0 °F 29.84 in Calm     55% 0.00 in
23:11 85.0 °F 67.0 °F 29.84 in Calm     55% 0.00 in
23:16 85.1 °F 67.7 °F 29.84 in Calm     56% 0.00 in
23:21 84.7 °F 67.8 °F 29.84 in Calm     57% 0.00 in
23:26 84.6 °F 67.7 °F 29.84 in Calm     57% 0.00 in
23:31 84.4 °F 67.5 °F 29.85 in Calm     57% 0.00 in
23:36 84.2 °F 66.8 °F 29.84 in Calm     56% 0.00 in
23:41 84.2 °F 67.3 °F 29.85 in Calm     57% 0.00 in
23:46 84.1 °F 67.2 °F 29.84 in Calm     57% 0.00 in
23:51 83.7 °F 66.9 °F 29.84 in Calm     57% 0.00 in
23:56 83.1 °F 67.3 °F 29.84 in Calm     59% 0.00 in
Compliments of Weather Underground